Terminal Aerodrome Forecast
Issued by NWS Binghamton, NY

Home | Current Version | Previous Version | Text Only | Print | Product List | Glossary On
Versions: 1 2 3 4 5 6 7 8 9 10 11 12 13 14 15 16 17 18
248
FTUS41 KBGM 241442 AAA
TAFSYR
TAF AMD
KSYR 241442Z 2415/2512 15012G22KT P6SM OVC035 WS020/23045KT
      TEMPO 2415/2419 4SM -RA BR OVC025
     FM250200 34005KT 3SM -DZ BR OVC008=

USA.gov is the U.S. government's official web portal to all federal, state and local government web resources and services.